createdAt,value
2018-07-09T00:01:04.874Z,0
2018-07-09T00:02:14.696Z,0
2018-07-09T00:03:24.771Z,0
2018-07-09T00:04:34.586Z,0
2018-07-09T00:05:44.401Z,0
2018-07-09T00:06:54.469Z,0
2018-07-09T00:08:04.537Z,0
2018-07-09T00:09:14.348Z,0
2018-07-09T00:10:24.435Z,0
2018-07-09T00:11:34.506Z,0
2018-07-09T00:12:44.329Z,0
2018-07-09T00:13:54.400Z,0
2018-07-09T00:15:04.455Z,0
2018-07-09T00:16:14.279Z,0
2018-07-09T00:17:24.350Z,0
2018-07-09T00:18:34.452Z,0
2018-07-09T00:19:44.544Z,0
2018-07-09T00:20:54.371Z,0
2018-07-09T00:22:04.172Z,0
2018-07-09T00:23:13.995Z,0
2018-07-09T00:24:24.147Z,0
2018-07-09T00:32:22.305Z,0
2018-07-09T00:33:32.444Z,0
2018-07-09T00:34:41.989Z,0
2018-07-09T00:35:52.068Z,0
2018-07-09T00:37:02.163Z,0
2018-07-09T00:38:12.228Z,0
2018-07-09T00:39:22.295Z,0
2018-07-09T00:40:32.373Z,0
2018-07-09T00:41:42.462Z,0
2018-07-09T00:42:52.555Z,0
2018-07-09T00:44:02.431Z,0
2018-07-09T00:45:12.526Z,0
2018-07-09T00:46:22.591Z,0
2018-07-09T00:47:32.665Z,0
2018-07-09T00:48:42.824Z,0
2018-07-09T00:49:52.692Z,0
2018-07-09T00:51:03.185Z,0
2018-07-09T00:52:13.387Z,0
2018-07-09T00:53:23.212Z,0
2018-07-09T00:54:32.765Z,0
2018-07-09T00:55:42.627Z,0
2018-07-09T00:56:52.723Z,0
2018-07-09T00:58:02.805Z,0
2018-07-09T00:59:12.881Z,0
2018-07-09T01:00:22.961Z,0
2018-07-09T01:01:32.819Z,0
2018-07-09T01:02:42.631Z,0
2018-07-09T01:03:52.699Z,0
2018-07-09T01:05:02.515Z,0
2018-07-09T01:06:12.591Z,0
2018-07-09T01:07:22.654Z,0
2018-07-09T01:08:32.746Z,0
2018-07-09T01:09:42.816Z,0
2018-07-09T01:10:52.896Z,0
2018-07-09T01:12:02.968Z,0
2018-07-09T01:13:12.787Z,0
2018-07-09T01:14:22.867Z,0
2018-07-09T01:15:32.954Z,0
2018-07-09T01:16:43.029Z,0
2018-07-09T01:17:53.115Z,0
2018-07-09T01:19:03.242Z,0
2018-07-09T01:20:13.329Z,0
2018-07-09T01:21:23.225Z,0
2018-07-09T01:22:33.307Z,0
2018-07-09T01:23:43.120Z,0
2018-07-09T01:24:53.194Z,0
2018-07-09T01:26:03.278Z,0
2018-07-09T01:27:13.350Z,0
2018-07-09T01:28:23.424Z,0
2018-07-09T01:29:33.484Z,0
2018-07-09T01:30:43.583Z,0
2018-07-09T01:31:53.657Z,0
2018-07-09T01:33:03.736Z,0
2018-07-09T01:34:13.823Z,0
2018-07-09T01:35:23.892Z,0
2018-07-09T01:36:33.976Z,0
2018-07-09T01:37:44.048Z,0
2018-07-09T01:38:54.137Z,0
2018-07-09T01:40:04.203Z,0
2018-07-09T01:41:14.290Z,0
2018-07-09T01:42:24.361Z,0
2018-07-09T01:43:34.429Z,0
2018-07-09T01:44:44.238Z,0
2018-07-09T01:45:54.061Z,0
2018-07-09T01:47:03.624Z,0
2018-07-09T01:48:13.446Z,0
2018-07-09T01:49:23.543Z,0
2018-07-09T01:50:33.610Z,0
2018-07-09T01:51:43.680Z,0
2018-07-09T01:52:53.491Z,0
2018-07-09T01:54:03.562Z,0
2018-07-09T01:55:13.625Z,0
2018-07-09T01:56:23.706Z,0
2018-07-09T01:57:33.778Z,0
2018-07-09T01:58:43.597Z,0
2018-07-09T01:59:53.669Z,0
2018-07-09T02:01:03.738Z,0
2018-07-09T02:02:13.813Z,0
2018-07-09T02:03:23.882Z,0
2018-07-09T02:04:33.700Z,0
2018-07-09T02:05:43.519Z,0
2018-07-09T02:06:53.334Z,0
2018-07-09T02:08:03.398Z,0
2018-07-09T02:09:13.495Z,0
2018-07-09T02:10:23.562Z,0
2018-07-09T02:11:33.673Z,0
2018-07-09T02:12:43.494Z,0
2018-07-09T02:13:53.568Z,0
2018-07-09T02:15:03.701Z,0
2018-07-09T02:16:13.779Z,0
2018-07-09T02:17:23.612Z,0
2018-07-09T02:18:33.208Z,0
2018-07-09T02:19:43.027Z,0
2018-07-09T02:20:52.830Z,0
2018-07-09T02:22:02.926Z,0
2018-07-09T02:23:13.045Z,0
2018-07-09T02:24:23.129Z,4
2018-07-09T02:25:32.941Z,4
2018-07-09T02:26:42.753Z,0
2018-07-09T02:27:52.828Z,0
2018-07-09T02:29:02.655Z,4
2018-07-09T02:30:12.731Z,0
2018-07-09T02:31:22.579Z,4
2018-07-09T02:32:32.665Z,0
2018-07-09T02:33:42.737Z,4
2018-07-09T02:34:52.855Z,4
2018-07-09T02:36:02.940Z,4
2018-07-09T02:37:13.010Z,8
2018-07-09T02:38:23.089Z,8
2018-07-09T02:39:32.665Z,8
2018-07-09T02:40:42.768Z,12
2018-07-09T02:41:52.844Z,12
2018-07-09T02:43:02.927Z,12
2018-07-09T02:44:13.012Z,16
2018-07-09T02:45:22.826Z,20
2018-07-09T02:46:32.898Z,20
2018-07-09T02:47:42.709Z,24
2018-07-09T02:48:52.261Z,24
2018-07-09T02:50:02.101Z,32
2018-07-09T02:51:11.913Z,32
2018-07-09T02:52:22.052Z,40
2018-07-09T02:53:32.133Z,44
2018-07-09T02:54:41.955Z,48
2018-07-09T02:55:52.051Z,56
2018-07-09T02:57:02.146Z,60
2018-07-09T02:58:12.231Z,72
2018-07-09T02:59:22.307Z,76
2018-07-09T03:00:32.392Z,84
2018-07-09T03:01:41.955Z,96
2018-07-09T03:02:52.062Z,104
2018-07-09T03:35:37.900Z,788
2018-07-09T03:36:47.717Z,820
2018-07-09T03:37:57.778Z,856
2018-07-09T03:39:07.578Z,892
2018-07-09T03:40:17.636Z,932
2018-07-09T03:41:27.447Z,972
2018-07-09T03:42:37.510Z,1020
2018-07-09T03:43:47.573Z,1064
2018-07-09T03:44:57.369Z,1108
2018-07-09T03:46:07.195Z,1148
2018-07-09T03:47:17.294Z,1180
2018-07-09T03:48:27.350Z,1216
2018-07-09T03:49:37.172Z,1248
2018-07-09T03:50:47.273Z,1292
2018-07-09T03:51:57.342Z,1332
2018-07-09T03:53:07.201Z,1376
2018-07-09T03:54:17.007Z,1424
2018-07-09T03:55:27.072Z,1472
2018-07-09T03:56:36.635Z,1512
2018-07-09T03:57:46.196Z,1548
2018-07-09T03:58:56.314Z,1592
2018-07-09T04:00:06.127Z,1648
2018-07-09T04:01:16.203Z,1712
2018-07-09T04:02:26.602Z,1772
2018-07-09T04:03:36.670Z,1824
2018-07-09T04:04:46.494Z,1884
2018-07-09T04:05:56.314Z,1936
2018-07-09T04:07:06.420Z,1980
2018-07-09T04:08:16.484Z,2016
2018-07-09T04:09:26.290Z,2052
2018-07-09T04:10:36.776Z,2092
2018-07-09T04:11:46.876Z,2148
2018-07-09T04:12:56.940Z,2220
2018-07-09T04:14:06.489Z,2280
2018-07-09T04:15:16.314Z,2352
2018-07-09T04:16:26.383Z,2432
2018-07-09T04:17:36.472Z,2516
2018-07-09T04:18:46.274Z,2612
2018-07-09T04:19:56.102Z,2700
2018-07-09T04:21:06.429Z,2776
2018-07-09T04:22:16.505Z,2832
2018-07-09T04:23:26.569Z,2888
2018-07-09T04:24:36.649Z,3312
2018-07-09T04:25:46.730Z,7440
2018-07-09T04:26:56.809Z,10352
2018-07-09T04:28:06.870Z,10388
2018-07-09T04:29:16.687Z,10744
2018-07-09T04:30:26.758Z,10912
2018-07-09T04:31:36.828Z,11060
2018-07-09T04:32:46.947Z,11012
2018-07-09T04:33:57.027Z,10788
2018-07-09T04:35:06.847Z,10908
2018-07-09T04:36:16.912Z,11292
2018-07-09T04:37:26.456Z,11488
2018-07-09T04:38:36.537Z,11784
2018-07-09T04:39:46.609Z,12112
2018-07-09T04:40:56.683Z,12244
2018-07-09T04:42:06.511Z,12148
2018-07-09T04:43:16.774Z,12580
2018-07-09T04:44:26.610Z,12328
2018-07-09T04:45:36.420Z,12212
2018-07-09T04:46:46.503Z,12324
2018-07-09T04:47:56.576Z,12088
2018-07-09T04:49:06.411Z,12124
2018-07-09T04:50:16.495Z,12276
2018-07-09T04:51:26.620Z,12192
2018-07-09T04:52:36.704Z,12280
2018-07-09T04:53:46.808Z,12072
2018-07-09T04:54:56.897Z,11600
2018-07-09T04:56:06.727Z,11548
2018-07-09T04:57:16.537Z,11652
2018-07-09T04:58:26.349Z,12124
2018-07-09T04:59:36.424Z,12036
2018-07-09T05:00:46.500Z,11832
2018-07-09T05:01:56.572Z,11836
2018-07-09T05:03:06.649Z,11784
2018-07-09T05:04:16.730Z,11468
2018-07-09T05:05:26.268Z,11544
2018-07-09T05:06:36.339Z,11560
2018-07-09T05:07:46.170Z,11344
2018-07-09T05:08:56.264Z,11368
2018-07-09T05:10:06.339Z,11604
2018-07-09T05:11:16.431Z,11432
2018-07-09T05:12:26.252Z,10964
2018-07-09T05:13:36.333Z,10992
2018-07-09T05:14:46.416Z,11068
2018-07-09T05:15:56.511Z,11180
2018-07-09T05:17:06.610Z,11192
2018-07-09T05:18:16.680Z,11152
2018-07-09T05:19:26.807Z,11396
2018-07-09T05:20:37.025Z,11532
2018-07-09T05:21:47.178Z,11484
2018-07-09T05:22:57.005Z,11624
2018-07-09T05:24:06.825Z,11316
2018-07-09T05:25:16.910Z,11304
2018-07-09T05:26:26.992Z,11332
2018-07-09T05:27:37.095Z,11032
2018-07-09T05:28:46.923Z,10988
2018-07-09T05:29:56.736Z,10804
2018-07-09T05:31:06.824Z,10868
2018-07-09T05:32:16.951Z,10980
2018-07-09T05:33:26.667Z,10892
2018-07-09T05:34:36.750Z,10840
2018-07-09T05:35:46.839Z,10800
2018-07-09T05:36:56.918Z,10684
2018-07-09T05:38:06.479Z,10656
2018-07-09T05:39:16.551Z,10696
2018-07-09T05:40:26.633Z,10628
2018-07-09T05:41:36.426Z,10664
2018-07-09T05:42:46.520Z,10640
2018-07-09T05:43:56.352Z,10704
2018-07-09T05:45:06.442Z,10684
2018-07-09T05:46:16.593Z,10576
2018-07-09T05:47:26.403Z,10464
2018-07-09T05:48:36.475Z,10440
2018-07-09T05:49:46.562Z,10468
2018-07-09T05:50:56.375Z,10380
2018-07-09T05:52:06.210Z,10308
2018-07-09T05:53:16.330Z,10304
2018-07-09T05:54:26.198Z,10228
2018-07-09T05:55:36.040Z,10336
2018-07-09T05:56:46.108Z,10276
2018-07-09T05:57:56.190Z,10088
2018-07-09T05:59:06.588Z,10052
2018-07-09T06:00:16.659Z,10000
2018-07-09T06:01:26.752Z,9988
2018-07-09T06:02:36.842Z,9972
2018-07-09T06:03:46.683Z,9912
2018-07-09T06:04:56.816Z,9860
2018-07-09T06:06:06.952Z,9872
2018-07-09T06:07:17.029Z,9704
2018-07-09T06:08:26.866Z,9608
2018-07-09T06:09:36.962Z,9560
2018-07-09T06:10:47.052Z,9532
2018-07-09T06:11:57.146Z,9512
2018-07-09T06:13:06.987Z,9392
2018-07-09T06:14:16.784Z,9408
2018-07-09T06:15:26.855Z,9356
2018-07-09T06:16:36.675Z,9284
2018-07-09T06:17:46.229Z,9176
2018-07-09T06:18:56.328Z,9100
2018-07-09T06:20:06.159Z,9028
2018-07-09T06:21:15.996Z,8980
2018-07-09T06:22:26.126Z,8928
2018-07-09T06:23:36.226Z,8864
2018-07-09T06:24:46.048Z,8768
2018-07-09T06:25:56.126Z,8632
2018-07-09T06:27:05.963Z,8528
2018-07-09T06:28:15.798Z,8432
2018-07-09T06:29:25.624Z,8348
2018-07-09T06:30:35.708Z,8264
2018-07-09T06:31:45.825Z,8168
2018-07-09T06:32:55.916Z,8112
2018-07-09T06:34:05.745Z,8052
2018-07-09T06:35:15.836Z,7964
2018-07-09T06:36:25.664Z,7920
2018-07-09T06:37:35.476Z,7876
2018-07-09T06:38:45.563Z,7808
2018-07-09T06:39:55.649Z,7720
2018-07-09T06:41:05.722Z,7644
2018-07-09T06:42:15.804Z,7556
2018-07-09T06:43:25.886Z,7484
2018-07-09T06:44:35.738Z,7376
2018-07-09T06:45:45.982Z,7332
2018-07-09T06:46:55.812Z,7236
2018-07-09T06:48:05.648Z,7136
2018-07-09T06:49:15.769Z,7028
2018-07-09T06:50:25.617Z,6908
2018-07-09T06:51:35.689Z,6804
2018-07-09T06:52:45.512Z,6712
2018-07-09T06:53:55.316Z,6604
2018-07-09T06:55:05.131Z,6492
2018-07-09T06:56:15.209Z,6400
2018-07-09T06:57:25.289Z,6292
2018-07-09T06:58:35.545Z,6184
2018-07-09T06:59:45.617Z,6072
2018-07-09T07:00:55.443Z,5976
2018-07-09T07:02:05.277Z,5884
2018-07-09T07:03:15.430Z,5804
2018-07-09T07:04:25.256Z,5712
2018-07-09T07:05:35.378Z,5612
2018-07-09T07:06:45.540Z,5528
2018-07-09T07:07:55.623Z,5408
2018-07-09T07:09:06.446Z,5340
2018-07-09T07:10:16.743Z,5244
2018-07-09T07:11:26.828Z,5176
2018-07-09T07:12:36.636Z,5076
2018-07-09T07:13:46.462Z,4996
2018-07-09T07:14:56.278Z,4848
2018-07-09T07:16:06.355Z,4480
2018-07-09T07:17:16.427Z,4148
2018-07-09T07:18:25.993Z,4064
2018-07-09T07:19:35.818Z,4036
2018-07-09T07:20:45.909Z,4044
2018-07-09T07:21:55.998Z,4064
2018-07-09T07:23:05.821Z,4088
2018-07-09T07:24:15.652Z,4100
2018-07-09T07:25:25.494Z,4112
2018-07-09T07:26:35.875Z,4112
2018-07-09T07:27:46.142Z,4116
2018-07-09T07:28:56.285Z,4148
2018-07-09T07:30:06.372Z,4144
2018-07-09T07:31:16.469Z,4152
2018-07-09T07:32:26.558Z,4164
2018-07-09T07:33:36.634Z,4172
2018-07-09T07:34:46.765Z,4184
2018-07-09T07:35:56.853Z,4212
2018-07-09T07:37:06.934Z,4212
2018-07-09T07:38:17.026Z,4212
2018-07-09T07:39:27.359Z,4196
2018-07-09T07:40:37.634Z,4232
2018-07-09T07:41:47.711Z,4236
2018-07-09T07:42:57.545Z,4252
2018-07-09T07:44:07.631Z,4264
2018-07-09T07:45:17.708Z,4276
2018-07-09T07:46:27.791Z,4300
2018-07-09T07:47:37.861Z,4312
2018-07-09T07:48:47.928Z,4308
2018-07-09T07:49:58.012Z,4340
2018-07-09T07:51:08.101Z,4332
2018-07-09T07:52:18.236Z,4356
2018-07-09T07:53:28.319Z,4348
2018-07-09T07:54:38.407Z,4356
2018-07-09T07:55:48.629Z,4388
2018-07-09T07:56:58.472Z,4404
2018-07-09T07:58:08.576Z,4424
2018-07-09T07:59:18.664Z,4436
2018-07-09T08:00:27.975Z,4460
2018-07-09T08:01:38.114Z,4488
2018-07-09T08:02:48.278Z,4508
2018-07-09T08:03:58.169Z,4524
2018-07-09T08:05:07.994Z,4536
2018-07-09T08:06:18.102Z,4560
2018-07-09T08:07:28.203Z,4580
2018-07-09T08:08:38.371Z,4588
2018-07-09T08:09:48.558Z,4604
2018-07-09T08:11:10.908Z,4620
2018-07-09T08:13:29.878Z,4624
2018-07-09T08:14:39.976Z,4624
2018-07-09T08:15:50.118Z,4624
2018-07-09T08:17:00.189Z,4624
2018-07-09T08:18:10.300Z,4616
2018-07-09T08:19:20.396Z,4616
2018-07-09T08:20:30.475Z,4628
2018-07-09T08:21:40.302Z,4628
2018-07-09T08:22:50.417Z,4648
2018-07-09T08:24:00.495Z,4644
2018-07-09T08:25:11.447Z,4644
2018-07-09T08:26:21.328Z,4640
2018-07-09T08:27:31.409Z,4636
2018-07-09T08:28:41.577Z,4656
2018-07-09T08:29:51.688Z,4664
2018-07-09T08:31:01.851Z,4672
2018-07-09T08:32:12.011Z,4696
2018-07-09T08:33:22.149Z,4704
2018-07-09T08:34:32.304Z,4712
2018-07-09T08:35:42.393Z,4712
2018-07-09T08:36:52.489Z,4720
2018-07-09T08:38:02.755Z,4724
2018-07-09T08:39:12.966Z,4736
2018-07-09T08:40:23.096Z,4748
2018-07-09T08:41:32.939Z,4736
2018-07-09T08:42:43.048Z,4760
2018-07-09T08:43:53.088Z,4744
2018-07-09T08:45:03.108Z,4780
2018-07-09T08:46:13.127Z,4788
2018-07-09T08:47:23.368Z,4784
2018-07-09T08:48:33.432Z,4784
2018-07-09T08:49:43.449Z,4788
2018-07-09T08:50:53.465Z,4792
2018-07-09T08:52:03.269Z,4828
2018-07-09T08:53:13.290Z,4860
2018-07-09T08:54:23.315Z,4916
2018-07-09T08:55:32.819Z,4968
2018-07-09T08:56:42.855Z,5024
2018-07-09T08:57:52.925Z,5104
2018-07-09T08:59:02.694Z,5124
2018-07-09T09:00:12.823Z,5148
2018-07-09T09:01:22.341Z,5184
2018-07-09T09:02:32.376Z,5240
2018-07-09T09:03:42.497Z,5260
2018-07-09T09:04:52.583Z,5372
2018-07-09T09:06:02.101Z,5460
2018-07-09T09:07:12.133Z,5544
2018-07-09T09:08:22.167Z,5632
2018-07-09T09:09:31.921Z,5720
2018-07-09T09:10:41.722Z,5716
2018-07-09T09:11:51.744Z,5704
2018-07-09T09:13:01.782Z,5696
2018-07-09T09:14:11.804Z,5644
2018-07-09T09:15:21.572Z,5684
2018-07-09T09:16:31.786Z,5732
2018-07-09T09:17:41.919Z,5808
2018-07-09T09:18:51.944Z,5760
2018-07-09T09:20:01.973Z,5888
2018-07-09T09:21:12.045Z,5896
2018-07-09T09:22:22.075Z,5900
2018-07-09T09:23:32.094Z,6000
2018-07-09T09:24:42.116Z,6016
2018-07-09T09:25:52.141Z,5928
2018-07-09T09:27:02.163Z,5524
2018-07-09T09:28:11.927Z,4364
2018-07-09T09:29:21.709Z,5872
2018-07-09T09:30:31.735Z,5844
2018-07-09T09:31:41.727Z,5904
2018-07-09T09:32:51.741Z,6124
2018-07-09T09:34:01.765Z,6460
2018-07-09T09:35:11.808Z,6728
2018-07-09T09:36:21.857Z,7004
2018-07-09T09:37:31.859Z,7140
2018-07-09T09:38:42.047Z,4616
2018-07-09T09:39:51.809Z,7232
2018-07-09T09:41:01.854Z,6844
2018-07-09T09:42:11.645Z,7120
2018-07-09T09:43:21.853Z,5256
2018-07-09T09:44:31.366Z,4612
2018-07-09T09:45:41.419Z,7208
2018-07-09T09:46:50.692Z,5000
2018-07-09T09:48:00.739Z,4488
2018-07-09T09:49:10.511Z,7308
2018-07-09T09:50:20.537Z,7212
2018-07-09T09:51:30.554Z,4492
2018-07-09T09:52:40.566Z,4340
2018-07-09T09:53:50.331Z,6312
2018-07-09T09:55:00.254Z,6752
2018-07-09T09:56:10.397Z,6820
2018-07-09T09:57:20.461Z,4064
2018-07-09T09:58:30.230Z,4424
2018-07-09T09:59:40.238Z,7048
2018-07-09T10:00:50.425Z,7288
2018-07-09T10:02:00.476Z,7600
2018-07-09T10:03:10.495Z,7888
2018-07-09T10:04:20.260Z,8080
2018-07-09T10:05:30.280Z,8072
2018-07-09T10:06:40.418Z,8060
2018-07-09T10:07:50.435Z,8108
2018-07-09T10:09:00.457Z,6456
2018-07-09T10:10:10.228Z,7620
2018-07-09T10:11:20.008Z,5244
2018-07-09T10:12:30.046Z,5208
2018-07-09T10:13:40.112Z,5648
2018-07-09T10:14:50.137Z,7792
2018-07-09T10:16:00.151Z,7404
2018-07-09T10:17:10.176Z,7556
2018-07-09T10:18:20.192Z,7504
2018-07-09T10:19:30.284Z,6816
2018-07-09T10:20:39.802Z,4544
2018-07-09T10:21:49.573Z,4348
2018-07-09T10:23:00.285Z,4520
2018-07-09T10:24:10.566Z,7636
2018-07-09T10:25:20.600Z,7772
2018-07-09T10:26:30.353Z,5912
2018-07-09T10:27:40.105Z,7948
2018-07-09T10:28:50.128Z,7976
2018-07-09T10:30:00.167Z,7788
2018-07-09T10:31:09.935Z,6248
2018-07-09T10:32:19.945Z,6808
2018-07-09T10:33:29.972Z,7340
2018-07-09T10:34:39.740Z,6460
2018-07-09T10:35:49.777Z,6840
2018-07-09T10:36:59.793Z,7720
2018-07-09T10:38:09.824Z,7476
2018-07-09T10:39:19.837Z,7236
2018-07-09T10:40:29.604Z,7332
2018-07-09T10:41:39.644Z,7340
2018-07-09T10:42:49.658Z,7404
2018-07-09T10:43:59.440Z,7496
2018-07-09T10:45:09.483Z,7420
2018-07-09T10:46:19.572Z,7452
2018-07-09T10:47:29.323Z,7576
2018-07-09T10:48:39.344Z,7584
2018-07-09T10:49:49.123Z,7492
2018-07-09T10:50:58.897Z,7548
2018-07-09T10:52:08.923Z,7600
2018-07-09T10:53:18.943Z,7716
2018-07-09T10:54:28.962Z,7040
2018-07-09T10:55:38.994Z,4736
2018-07-09T10:56:49.024Z,7664
2018-07-09T10:57:59.069Z,5232
2018-07-09T10:59:08.836Z,5016
2018-07-09T11:00:18.880Z,5168
2018-07-09T11:01:28.385Z,8488
2018-07-09T11:02:38.140Z,8548
2018-07-09T11:03:48.234Z,8552
2018-07-09T11:04:58.257Z,8492
2018-07-09T11:06:08.304Z,8128
2018-07-09T11:07:18.317Z,7564
2018-07-09T11:08:28.347Z,5396
2018-07-09T11:09:38.221Z,8616
2018-07-09T11:10:48.368Z,5480
2018-07-09T11:11:58.395Z,5604
2018-07-09T11:13:08.165Z,8640
2018-07-09T11:14:18.177Z,7860
2018-07-09T11:15:27.938Z,8360
2018-07-09T11:16:37.979Z,8280
2018-07-09T11:17:48.008Z,8184
2018-07-09T11:18:58.049Z,7872
2018-07-09T11:20:08.061Z,4396
2018-07-09T11:21:18.078Z,4024
2018-07-09T11:22:27.858Z,3948
2018-07-09T11:23:37.882Z,3832
2018-07-09T11:24:47.698Z,3680
2018-07-09T11:25:57.737Z,3552
2018-07-09T11:27:07.769Z,3468
2018-07-09T11:28:17.792Z,3396
2018-07-09T11:29:28.138Z,3356
2018-07-09T11:30:38.177Z,3344
2018-07-09T11:31:47.448Z,3348
2018-07-09T11:32:57.487Z,3340
2018-07-09T11:34:07.513Z,3344
2018-07-09T11:35:17.573Z,3320
2018-07-09T11:36:27.817Z,3256
2018-07-09T11:37:37.798Z,3172
2018-07-09T11:38:47.622Z,3104
2018-07-09T11:39:57.399Z,3092
2018-07-09T11:41:07.156Z,3128
2018-07-09T11:42:17.514Z,3152
2018-07-09T11:43:27.552Z,3200
2018-07-09T11:44:37.352Z,3284
2018-07-09T11:45:47.442Z,3584
2018-07-09T11:46:57.472Z,4060
2018-07-09T11:48:07.277Z,4368
2018-07-09T11:49:17.305Z,4320
2018-07-09T11:50:27.380Z,5500
2018-07-09T11:51:37.408Z,6636
2018-07-09T11:52:47.442Z,7024
2018-07-09T11:53:56.692Z,7544
2018-07-09T11:55:06.435Z,5292
2018-07-09T11:56:16.266Z,4392
2018-07-09T11:57:26.031Z,7556
2018-07-09T11:58:35.908Z,8132
2018-07-09T11:59:45.970Z,8132
2018-07-09T12:00:55.989Z,8096
2018-07-09T12:02:06.299Z,8120
2018-07-09T12:03:16.060Z,8192
2018-07-09T12:04:25.820Z,8284
2018-07-09T12:05:35.576Z,8404
2018-07-09T12:06:45.617Z,8316
2018-07-09T12:07:55.661Z,4880
2018-07-09T12:09:05.427Z,6544
2018-07-09T12:10:15.189Z,5568
2018-07-09T12:11:25.140Z,8968
2018-07-09T12:12:35.229Z,8792
2018-07-09T12:13:45.010Z,8628
2018-07-09T12:14:55.043Z,8532
2018-07-09T12:16:05.067Z,8184
2018-07-09T12:17:15.082Z,5900
2018-07-09T12:18:25.097Z,4532
2018-07-09T12:19:35.115Z,5476
2018-07-09T12:20:44.627Z,7276
2018-07-09T12:21:54.397Z,6668
2018-07-09T12:23:04.162Z,7460
2018-07-09T12:24:14.198Z,7024
2018-07-09T12:25:24.212Z,3448
2018-07-09T12:26:34.228Z,3296
2018-07-09T12:27:43.988Z,3208
2018-07-09T12:28:54.168Z,3168
2018-07-09T12:30:04.354Z,3320
2018-07-09T12:31:14.116Z,4796
2018-07-09T12:32:23.878Z,6820
2018-07-09T12:33:33.888Z,6832
2018-07-09T12:34:43.916Z,5020
2018-07-09T12:35:53.676Z,6780
2018-07-09T12:37:03.750Z,6688
2018-07-09T12:38:13.518Z,6592
2018-07-09T12:39:23.537Z,6500
2018-07-09T12:40:33.562Z,6412
2018-07-09T12:41:43.646Z,6344
2018-07-09T12:42:53.661Z,6308
2018-07-09T12:44:03.676Z,6260
2018-07-09T12:45:13.700Z,6244
2018-07-09T12:46:23.464Z,6228
2018-07-09T12:47:33.231Z,6188
2018-07-09T12:48:43.264Z,6172
2018-07-09T12:49:53.356Z,6140
2018-07-09T12:51:03.424Z,6140
2018-07-09T12:52:13.183Z,6176
2018-07-09T12:53:23.192Z,6208
2018-07-09T12:54:32.961Z,6240
2018-07-09T12:55:43.185Z,6236
2018-07-09T12:56:53.106Z,6224
2018-07-09T12:58:02.872Z,6204
2018-07-09T12:59:12.648Z,6256
2018-07-09T13:00:22.702Z,6264
2018-07-09T13:01:32.982Z,6268
2018-07-09T13:02:43.323Z,6236
2018-07-09T13:03:53.346Z,6252
2018-07-09T13:05:03.374Z,6288
2018-07-09T13:06:13.144Z,6308
2018-07-09T13:07:23.155Z,6324
2018-07-09T13:08:33.182Z,6296
2018-07-09T13:09:42.925Z,6304
2018-07-09T13:10:52.446Z,6352
2018-07-09T13:12:02.460Z,6400
2018-07-09T13:13:12.225Z,6444
2018-07-09T13:14:22.277Z,6464
2018-07-09T13:15:32.381Z,6400
2018-07-09T13:16:42.136Z,6440
2018-07-09T13:17:52.213Z,6480
2018-07-09T13:19:02.242Z,6512
2018-07-09T13:20:12.309Z,6520
2018-07-09T13:21:22.059Z,6556
2018-07-09T13:22:32.066Z,6608
2018-07-09T13:23:42.090Z,6692
2018-07-09T13:24:52.122Z,6760
2018-07-09T13:26:02.187Z,6804
2018-07-09T13:27:12.231Z,6864
2018-07-09T13:28:22.243Z,6944
2018-07-09T13:29:32.277Z,7024
2018-07-09T13:30:42.035Z,7044
2018-07-09T13:31:52.056Z,7036
2018-07-09T13:33:02.158Z,7064
2018-07-09T13:34:12.191Z,7068
2018-07-09T13:35:22.238Z,7112
2018-07-09T13:36:32.260Z,7284
2018-07-09T13:37:42.276Z,7416
2018-07-09T13:38:52.306Z,7412
2018-07-09T13:40:02.322Z,7460
2018-07-09T13:41:12.347Z,7284
2018-07-09T13:42:22.372Z,7284
2018-07-09T13:43:32.119Z,7304
2018-07-09T13:44:42.148Z,7364
2018-07-09T13:45:52.182Z,7424
2018-07-09T13:47:01.934Z,7512
2018-07-09T13:48:11.716Z,7452
2018-07-09T13:49:21.538Z,7532
2018-07-09T13:50:31.584Z,7476
2018-07-09T13:51:41.617Z,7576
2018-07-09T13:52:51.373Z,7620
2018-07-09T13:54:01.125Z,7564
2018-07-09T13:55:11.157Z,7572
2018-07-09T13:56:21.173Z,7492
2018-07-09T13:57:31.213Z,7420
2018-07-09T13:58:41.238Z,7308
2018-07-09T13:59:51.004Z,7300
2018-07-09T14:01:00.885Z,7268
2018-07-09T14:02:10.673Z,5864
2018-07-09T14:03:20.440Z,5420
2018-07-09T14:04:30.464Z,6312
2018-07-09T14:05:40.514Z,7084
2018-07-09T14:06:50.574Z,6928
2018-07-09T14:08:00.351Z,6936
2018-07-09T14:09:10.364Z,6980
2018-07-09T14:10:20.534Z,5396
2018-07-09T14:11:30.802Z,7060
2018-07-09T14:12:40.830Z,7104
2018-07-09T14:13:50.861Z,6140
2018-07-09T14:15:00.887Z,6908
2018-07-09T14:16:10.648Z,6980
2018-07-09T14:17:20.657Z,7136
2018-07-09T14:18:30.676Z,7124
2018-07-09T14:19:40.701Z,7076
2018-07-09T14:20:50.446Z,7192
2018-07-09T14:21:59.961Z,7252
2018-07-09T14:23:09.981Z,7332
2018-07-09T14:24:20.000Z,7336
2018-07-09T14:25:30.017Z,7096
2018-07-09T14:26:39.521Z,7680
2018-07-09T14:27:49.539Z,7840
2018-07-09T14:28:59.558Z,7872
2018-07-09T14:30:09.370Z,7876
2018-07-09T14:31:19.396Z,7848
2018-07-09T14:32:29.148Z,7804
2018-07-09T14:33:39.175Z,7712
2018-07-09T14:34:49.186Z,7608
2018-07-09T14:35:59.243Z,7548
2018-07-09T14:37:09.591Z,7400
2018-07-09T14:38:19.100Z,7176
2018-07-09T14:39:29.122Z,6996
2018-07-09T14:40:39.140Z,6748
2018-07-09T14:41:49.191Z,6544
2018-07-09T14:42:59.217Z,6388
2018-07-09T14:44:09.240Z,6204
2018-07-09T14:45:19.338Z,5984
2018-07-09T14:46:29.357Z,5696
2018-07-09T14:47:39.118Z,5532
2018-07-09T14:48:49.143Z,4504
2018-07-09T14:49:59.179Z,5476
2018-07-09T14:51:08.689Z,4780
2018-07-09T14:52:18.719Z,5036
2018-07-09T14:53:28.812Z,3488
2018-07-09T14:54:38.839Z,3484
2018-07-09T14:55:48.617Z,3432
2018-07-09T14:56:58.644Z,3296
2018-07-09T14:58:08.722Z,3356
2018-07-09T14:59:18.799Z,3936
2018-07-09T15:00:28.862Z,4300
2018-07-09T15:01:38.896Z,5436
2018-07-09T15:02:48.657Z,5000
2018-07-09T15:03:58.677Z,5536
2018-07-09T15:05:08.725Z,5488
2018-07-09T15:06:18.763Z,5476
2018-07-09T15:07:28.805Z,5464
2018-07-09T15:08:38.560Z,5436
2018-07-09T15:09:48.915Z,5320
2018-07-09T15:10:58.674Z,5192
2018-07-09T15:12:08.449Z,5116
2018-07-09T15:13:18.207Z,5052
2018-07-09T15:14:28.239Z,5024
2018-07-09T15:15:38.247Z,5004
2018-07-09T15:16:48.074Z,4936
2018-07-09T15:17:58.096Z,4908
2018-07-09T15:19:07.599Z,4888
2018-07-09T15:20:17.619Z,4880
2018-07-09T15:21:27.647Z,4844
2018-07-09T15:22:37.762Z,4808
2018-07-09T15:23:47.786Z,4740
2018-07-09T15:24:57.799Z,4680
2018-07-09T15:26:07.569Z,4644
2018-07-09T15:27:17.592Z,4616
2018-07-09T15:28:27.348Z,4616
2018-07-09T15:29:37.130Z,4604
2018-07-09T15:30:47.177Z,4612
2018-07-09T15:31:57.212Z,4560
2018-07-09T15:33:07.247Z,4500
2018-07-09T15:34:17.316Z,4480
2018-07-09T15:35:27.332Z,4472
2018-07-09T15:36:37.118Z,4428
2018-07-09T15:37:46.882Z,4432
2018-07-09T15:38:56.907Z,4484
2018-07-09T15:40:06.923Z,4488
2018-07-09T15:41:16.755Z,4528
2018-07-09T15:42:26.545Z,4588
2018-07-09T15:43:36.704Z,4568
2018-07-09T15:44:46.211Z,4584
2018-07-09T15:45:56.225Z,4608
2018-07-09T15:47:05.995Z,4616
2018-07-09T15:48:16.004Z,4640
2018-07-09T15:49:26.033Z,4636
2018-07-09T15:50:36.060Z,4600
2018-07-09T15:51:45.830Z,4548
2018-07-09T15:52:55.839Z,4508
2018-07-09T15:54:05.858Z,4472
2018-07-09T15:55:15.425Z,4452
2018-07-09T15:56:25.468Z,4480
2018-07-09T15:57:35.557Z,4484
2018-07-09T15:58:45.326Z,4520
2018-07-09T15:59:54.604Z,4576
2018-07-09T16:01:04.649Z,4624
2018-07-09T16:02:14.676Z,4572
2018-07-09T16:03:24.755Z,4568
2018-07-09T16:04:34.791Z,4540
2018-07-09T16:05:44.830Z,4512
2018-07-09T16:06:54.863Z,4480
2018-07-09T16:08:04.929Z,4420
2018-07-09T16:09:14.425Z,4376
2018-07-09T16:10:23.924Z,4364
2018-07-09T16:11:34.116Z,4356
2018-07-09T16:12:44.027Z,4340
2018-07-09T16:13:54.152Z,4284
2018-07-09T16:15:03.676Z,4252
2018-07-09T16:16:13.494Z,4204
2018-07-09T16:17:23.524Z,4164
2018-07-09T16:18:33.537Z,4136
2018-07-09T16:19:43.548Z,4116
2018-07-09T16:20:53.583Z,3880
2018-07-09T16:22:03.604Z,3676
2018-07-09T16:23:13.643Z,3328
2018-07-09T16:24:23.675Z,3364
2018-07-09T16:25:33.704Z,3664